Time;durP1;ratioP1;P1;durP2;ratioP2;P2;SDS_P1;SDS_P2;PMS_P1;PMS_P2;Temp;Humidity;BMP_temperature;BMP_pressure;BME280_temperature;BME280_humidity;BME280_pressure;Samples;Min_cycle;Max_cycle;Signal;HPM_P1;HPM_P2
2022/03/28 00:00:10;;;;;;;11.40;5.60;;;5.50;37.10;;;;;;4994639;28;20199;-50
2022/03/28 00:02:40;;;;;;;12.13;5.40;;;5.40;1.00;;;;;;4994152;28;20334;-50
2022/03/28 00:05:07;;;;;;;11.03;6.27;;;5.50;51.40;;;;;;4984903;28;20474;-50
2022/03/28 00:07:32;;;;;;;11.80;5.50;;;5.40;1.00;;;;;;4993330;28;20423;-50
2022/03/28 00:09:58;;;;;;;11.40;6.00;;;5.40;99.90;;;;;;4993362;28;20917;-50
2022/03/28 00:12:24;;;;;;;10.63;5.60;;;5.50;15.10;;;;;;4986493;28;20195;-50
2022/03/28 00:14:50;;;;;;;8.90;5.40;;;5.60;1.00;;;;;;4993002;28;20526;-50
2022/03/28 00:17:15;;;;;;;8.77;5.10;;;5.50;99.90;;;;;;4992758;28;20243;-50
2022/03/28 00:19:41;;;;;;;11.07;6.00;;;5.50;1.00;;;;;;5002960;28;20725;-50
2022/03/28 00:22:07;;;;;;;9.00;5.30;;;5.40;99.90;;;;;;4992857;28;20204;-50
2022/03/28 00:24:32;;;;;;;12.83;5.20;;;5.50;60.40;;;;;;4985316;28;20331;-50
2022/03/28 00:26:58;;;;;;;8.10;5.00;;;5.50;94.70;;;;;;5001370;28;20179;-50
2022/03/28 00:29:24;;;;;;;11.50;6.23;;;5.50;1.00;;;;;;4992876;28;20172;-50
2022/03/28 00:31:50;;;;;;;9.50;5.60;;;5.40;99.90;;;;;;4994572;28;20582;-50
2022/03/28 00:34:21;;;;;;;10.63;5.73;;;5.40;1.00;;;;;;4996417;28;20518;-50
2022/03/28 00:36:50;;;;;;;8.97;5.33;;;5.40;1.00;;;;;;4991121;28;20190;-51
2022/03/28 00:39:19;;;;;;;10.07;5.83;;;5.30;47.30;;;;;;4991032;28;20781;-50
2022/03/28 00:41:46;;;;;;;12.60;6.00;;;5.30;99.90;;;;;;4988051;28;20870;-50
2022/03/28 00:44:11;;;;;;;13.40;7.33;;;5.30;99.90;;;;;;4992601;28;20559;-50
2022/03/28 00:46:37;;;;;;;13.93;7.83;;;5.40;99.90;;;;;;4992420;28;20507;-50
2022/03/28 00:49:03;;;;;;;16.77;7.43;;;5.50;99.90;;;;;;5006003;28;20913;-50
2022/03/28 00:51:29;;;;;;;16.83;8.10;;;5.40;99.90;;;;;;4992594;28;20416;-50
2022/03/28 00:53:55;;;;;;;20.83;8.63;;;5.50;1.00;;;;;;4999140;28;20810;-50
2022/03/28 00:56:21;;;;;;;18.00;8.50;;;5.40;1.00;;;;;;4993791;28;20529;-50
2022/03/28 00:58:47;;;;;;;14.37;7.30;;;5.30;1.00;;;;;;4988917;28;20487;-50
2022/03/28 01:01:12;;;;;;;17.60;8.30;;;5.40;1.00;;;;;;4987230;28;20188;-50
2022/03/28 01:03:38;;;;;;;19.77;9.03;;;5.40;1.00;;;;;;4997443;28;20347;-50
2022/03/28 01:06:05;;;;;;;22.90;8.03;;;5.30;1.00;;;;;;4991907;28;20680;-50
2022/03/28 01:08:32;;;;;;;18.37;8.73;;;5.40;1.00;;;;;;4992106;28;20943;-50
2022/03/28 01:11:02;;;;;;;16.93;8.13;;;5.30;1.00;;;;;;4997561;28;20909;-50
2022/03/28 01:13:28;;;;;;;24.00;8.67;;;5.20;1.00;;;;;;4993476;28;20456;-50
2022/03/28 01:15:54;;;;;;;21.83;9.67;;;5.20;90.80;;;;;;4988588;28;20452;-50
2022/03/28 01:18:19;;;;;;;21.90;9.07;;;5.20;99.90;;;;;;4987833;28;20774;-50
2022/03/28 01:20:45;;;;;;;22.27;10.50;;;5.20;99.90;;;;;;4999454;28;20560;-50
2022/03/28 01:23:11;;;;;;;28.83;11.23;;;5.20;99.90;;;;;;4983771;28;20223;-50
2022/03/28 01:25:36;;;;;;;28.83;11.97;;;5.20;99.90;;;;;;4985603;28;20180;-50
2022/03/28 01:28:03;;;;;;;33.57;12.40;;;5.10;99.90;;;;;;4976771;28;20182;-50
2022/03/28 01:30:31;;;;;;;34.97;14.27;;;5.10;99.90;;;;;;4995479;28;20919;-50
2022/03/28 01:32:57;;;;;;;37.77;14.70;;;5.20;99.90;;;;;;4993811;28;20521;-50
2022/03/28 01:35:32;;;;;;;39.80;15.83;;;5.20;99.90;;;;;;4987225;28;20419;-50
2022/03/28 01:37:59;;;;;;;36.00;15.13;;;5.20;99.90;;;;;;4999069;28;20561;-50
2022/03/28 01:40:25;;;;;;;37.03;17.07;;;5.20;99.90;;;;;;4983925;28;20416;-50
2022/03/28 01:42:51;;;;;;;37.87;16.80;;;5.20;99.90;;;;;;4991154;28;20471;-50
2022/03/28 01:45:18;;;;;;;34.57;16.00;;;5.20;99.90;;;;;;4991657;28;20435;-50
2022/03/28 01:47:44;;;;;;;32.77;15.77;;;5.20;99.90;;;;;;4989763;28;20173;-50
2022/03/28 01:50:10;;;;;;;37.33;17.40;;;5.10;99.90;;;;;;4995469;28;20423;-50
2022/03/28 01:52:35;;;;;;;36.30;16.87;;;5.10;99.90;;;;;;4991397;28;20438;-50
2022/03/28 01:55:01;;;;;;;40.13;17.67;;;5.10;99.90;;;;;;4989801;28;20698;-50
2022/03/28 01:57:27;;;;;;;40.63;17.97;;;5.10;99.90;;;;;;4990450;28;20195;-50
2022/03/28 01:59:53;;;;;;;39.07;18.10;;;5.20;99.90;;;;;;4992059;28;20191;-50
2022/03/28 02:02:18;;;;;;;46.70;18.67;;;5.20;99.90;;;;;;4993039;28;20467;-50
2022/03/28 02:04:44;;;;;;;37.30;16.63;;;5.20;99.90;;;;;;4990618;28;20184;-49
2022/03/28 02:07:09;;;;;;;31.77;14.17;;;5.20;99.90;;;;;;4996442;28;20192;-50
2022/03/28 02:09:35;;;;;;;27.70;11.33;;;5.20;99.90;;;;;;4991149;28;20223;-50
2022/03/28 02:12:00;;;;;;;20.17;10.80;;;5.20;99.90;;;;;;5005828;28;20213;-50
2022/03/28 02:14:26;;;;;;;17.70;8.33;;;5.20;1.00;;;;;;5003179;28;20173;-50
2022/03/28 02:16:51;;;;;;;20.47;7.70;;;5.10;99.90;;;;;;4991219;28;20241;-50
2022/03/28 02:19:17;;;;;;;18.47;8.13;;;5.10;99.90;;;;;;4987784;28;20813;-50
2022/03/28 02:21:42;;;;;;;18.87;8.07;;;5.00;99.90;;;;;;4997731;28;20215;-50
2022/03/28 02:24:08;;;;;;;15.20;7.20;;;4.90;1.00;;;;;;5006576;28;20219;-50
2022/03/28 02:26:34;;;;;;;15.57;8.23;;;4.90;42.40;;;;;;5004907;28;20169;-50
2022/03/28 02:28:59;;;;;;;18.33;8.00;;;4.90;99.90;;;;;;5005596;28;20172;-50
2022/03/28 02:31:25;;;;;;;14.97;7.83;;;4.90;99.90;;;;;;4991809;28;20189;-50
2022/03/28 02:33:50;;;;;;;15.47;8.70;;;4.90;99.90;;;;;;5000709;28;20516;-50
2022/03/28 02:36:16;;;;;;;18.67;9.53;;;5.00;99.90;;;;;;4993137;28;20184;-50
2022/03/28 02:38:41;;;;;;;18.80;9.33;;;5.00;99.90;;;;;;4992615;28;20279;-50
2022/03/28 02:41:07;;;;;;;23.20;10.53;;;5.00;99.90;;;;;;4996283;28;20184;-50
2022/03/28 02:43:32;;;;;;;20.77;9.77;;;5.00;99.90;;;;;;4990282;28;20208;-50
2022/03/28 02:45:58;;;;;;;28.77;11.73;;;5.00;99.90;;;;;;4992026;28;20523;-50
2022/03/28 02:48:23;;;;;;;30.77;12.73;;;5.00;99.90;;;;;;4998151;28;20176;-50
2022/03/28 02:50:50;;;;;;;26.20;12.07;;;5.00;99.90;;;;;;4990585;28;20176;-50
2022/03/28 02:53:16;;;;;;;28.10;11.60;;;5.00;99.90;;;;;;4990290;28;20204;-50
2022/03/28 02:55:42;;;;;;;34.40;13.50;;;5.10;99.90;;;;;;4993581;28;20451;-50
2022/03/28 02:58:07;;;;;;;30.03;12.87;;;5.10;99.90;;;;;;4976793;28;21025;-50
2022/03/28 03:00:33;;;;;;;29.80;12.90;;;5.10;99.90;;;;;;4972768;28;20192;-50
2022/03/28 03:02:59;;;;;;;30.80;13.37;;;5.00;99.90;;;;;;4996135;28;20207;-50
2022/03/28 03:05:24;;;;;;;27.80;12.40;;;5.10;99.90;;;;;;4990363;28;20448;-50
2022/03/28 03:07:50;;;;;;;29.90;12.70;;;5.10;99.90;;;;;;4989933;28;20247;-50
2022/03/28 03:10:16;;;;;;;29.80;13.23;;;5.20;99.90;;;;;;4990105;28;20647;-50
2022/03/28 03:12:41;;;;;;;33.93;13.03;;;5.20;99.90;;;;;;4989106;28;20537;-50
2022/03/28 03:15:07;;;;;;;35.00;13.00;;;5.10;99.90;;;;;;4998389;28;20184;-50
2022/03/28 03:17:35;;;;;;;32.70;14.17;;;5.20;99.90;;;;;;5003267;28;20199;-49
2022/03/28 03:20:01;;;;;;;29.67;13.60;;;5.20;99.90;;;;;;4990769;28;20426;-50
2022/03/28 03:22:26;;;;;;;31.30;12.57;;;5.20;99.90;;;;;;4989812;28;20462;-50
2022/03/28 03:24:52;;;;;;;32.17;14.07;;;5.20;99.90;;;;;;4997907;28;20513;-50
2022/03/28 03:27:17;;;;;;;33.40;14.80;;;5.20;99.90;;;;;;4995293;28;20950;-50
2022/03/28 03:29:43;;;;;;;32.90;14.10;;;5.20;99.90;;;;;;4990004;28;20184;-50
2022/03/28 03:32:09;;;;;;;41.40;15.40;;;5.20;99.90;;;;;;4989954;28;20230;-50
2022/03/28 03:34:34;;;;;;;34.77;13.67;;;5.20;99.90;;;;;;4997480;28;20639;-50
2022/03/28 03:37:00;;;;;;;37.47;14.20;;;5.30;99.90;;;;;;5001285;28;20202;-50
2022/03/28 03:39:27;;;;;;;30.53;13.47;;;5.20;99.90;;;;;;5001323;28;20536;-50
2022/03/28 03:41:53;;;;;;;32.10;13.30;;;5.30;99.90;;;;;;4989952;28;20427;-50
2022/03/28 03:44:19;;;;;;;27.50;12.60;;;5.20;99.90;;;;;;4972403;28;20478;-50
2022/03/28 03:46:45;;;;;;;29.67;12.80;;;5.20;99.90;;;;;;4990422;28;20917;-50
2022/03/28 03:49:11;;;;;;;30.13;12.40;;;5.20;99.90;;;;;;4991036;28;20212;-50
2022/03/28 03:51:37;;;;;;;31.80;12.80;;;5.30;99.90;;;;;;4989790;28;20447;-49
2022/03/28 03:54:03;;;;;;;29.50;11.60;;;5.30;99.90;;;;;;4993571;28;20643;-49
2022/03/28 03:56:29;;;;;;;31.50;12.40;;;5.30;99.90;;;;;;5000807;28;20182;-50
2022/03/28 03:58:55;;;;;;;20.30;9.50;;;5.30;99.90;;;;;;4989839;28;20506;-50
2022/03/28 04:01:21;;;;;;;17.03;8.60;;;5.30;99.90;;;;;;4992866;28;20822;-50
2022/03/28 04:03:47;;;;;;;14.60;6.73;;;5.20;99.90;;;;;;5000999;28;20463;-50
2022/03/28 04:06:13;;;;;;;16.13;8.37;;;5.20;99.90;;;;;;4986489;28;20439;-50
2022/03/28 04:08:39;;;;;;;16.73;8.30;;;5.20;99.90;;;;;;4989549;28;20542;-50
2022/03/28 04:11:05;;;;;;;15.73;7.87;;;5.20;99.90;;;;;;4996921;28;20319;-50
2022/03/28 04:13:31;;;;;;;18.03;7.73;;;5.30;99.90;;;;;;4993419;28;20518;-54
2022/03/28 04:15:57;;;;;;;13.97;8.00;;;5.30;99.90;;;;;;4993408;28;20446;-54
2022/03/28 04:18:25;;;;;;;14.80;8.00;;;5.30;99.90;;;;;;4995762;28;20446;-54
2022/03/28 04:20:51;;;;;;;19.30;8.03;;;5.30;99.90;;;;;;4996861;28;20194;-54
2022/03/28 04:23:17;;;;;;;18.40;9.87;;;5.40;99.90;;;;;;4993125;28;20829;-54
2022/03/28 04:25:42;;;;;;;20.13;10.10;;;5.30;99.90;;;;;;4993199;28;20533;-53
2022/03/28 04:28:08;;;;;;;19.90;10.03;;;5.30;99.90;;;;;;4993387;28;20188;-53
2022/03/28 04:30:34;;;;;;;19.20;8.77;;;5.30;99.90;;;;;;4996369;28;20211;-54
2022/03/28 04:33:00;;;;;;;17.87;8.70;;;5.30;99.90;;;;;;5004056;28;20223;-54
2022/03/28 04:35:25;;;;;;;13.70;7.40;;;5.30;99.90;;;;;;4992284;28;20196;-54
2022/03/28 04:37:51;;;;;;;13.70;7.67;;;5.30;99.90;;;;;;4991917;28;20423;-54
2022/03/28 04:40:17;;;;;;;15.43;6.77;;;5.30;99.90;;;;;;4991840;28;20188;-54
2022/03/28 04:42:44;;;;;;;9.63;5.40;;;5.30;1.00;;;;;;4992042;28;20212;-54
2022/03/28 04:45:10;;;;;;;15.13;7.33;;;5.30;99.90;;;;;;4992899;28;20419;-54
2022/03/28 04:47:36;;;;;;;13.77;7.60;;;5.20;99.90;;;;;;4992058;28;20443;-54
2022/03/28 04:50:06;;;;;;;18.90;7.77;;;5.10;99.90;;;;;;4992761;28;20268;-54
2022/03/28 04:52:32;;;;;;;14.83;7.20;;;5.20;99.90;;;;;;4991439;28;20428;-54
2022/03/28 04:54:57;;;;;;;18.70;6.60;;;5.20;1.00;;;;;;4991839;28;20451;-54
2022/03/28 04:57:23;;;;;;;14.80;5.80;;;5.10;99.90;;;;;;4989058;28;20195;-54
2022/03/28 04:59:48;;;;;;;18.90;8.00;;;5.20;1.00;;;;;;4992188;28;20519;-54
2022/03/28 05:02:14;;;;;;;17.37;7.77;;;5.20;99.90;;;;;;4991721;28;20219;-54
2022/03/28 05:04:40;;;;;;;15.23;6.90;;;5.10;40.90;;;;;;4993234;28;20184;-55
2022/03/28 05:07:06;;;;;;;13.67;7.83;;;5.10;99.90;;;;;;4993586;28;20189;-54
2022/03/28 05:09:32;;;;;;;14.67;7.23;;;5.20;1.00;;;;;;4991937;28;20435;-54
2022/03/28 05:11:57;;;;;;;18.47;7.40;;;5.20;1.00;;;;;;4993288;28;20208;-55
2022/03/28 05:14:23;;;;;;;18.23;7.50;;;5.30;1.00;;;;;;4995596;28;20191;-50
2022/03/28 05:16:49;;;;;;;18.87;8.53;;;5.30;99.90;;;;;;4991627;28;20284;-50
2022/03/28 05:19:15;;;;;;;15.30;8.00;;;5.20;99.90;;;;;;4993778;28;20518;-50
2022/03/28 05:21:40;;;;;;;16.33;8.27;;;5.30;1.00;;;;;;4994650;28;20633;-50
2022/03/28 05:24:06;;;;;;;19.47;7.23;;;5.20;1.00;;;;;;4990570;28;20223;-50
2022/03/28 05:26:32;;;;;;;12.17;6.53;;;5.20;99.90;;;;;;4995533;28;20172;-50
2022/03/28 05:28:57;;;;;;;16.00;6.57;;;5.30;99.90;;;;;;4991397;28;20200;-50
2022/03/28 05:31:23;;;;;;;13.97;6.93;;;5.50;74.20;;;;;;4992379;28;20183;-50
2022/03/28 05:33:48;;;;;;;15.50;7.40;;;5.40;1.00;;;;;;4990302;28;20592;-50
2022/03/28 05:36:14;;;;;;;10.97;6.13;;;5.40;1.00;;;;;;4991660;28;20188;-50
2022/03/28 05:38:41;;;;;;;10.87;5.60;;;5.40;1.00;;;;;;4975460;28;20243;-50
2022/03/28 05:41:07;;;;;;;11.70;5.83;;;5.30;12.40;;;;;;4990533;28;20185;-50
2022/03/28 05:43:34;;;;;;;9.30;5.37;;;5.30;99.90;;;;;;4992288;28;20463;-49
2022/03/28 05:46:00;;;;;;;11.20;5.67;;;5.30;99.90;;;;;;4990821;28;20420;-49
2022/03/28 05:48:25;;;;;;;12.80;6.00;;;5.30;79.60;;;;;;4993265;28;20951;-50
2022/03/28 05:50:51;;;;;;;10.00;5.97;;;5.40;1.70;;;;;;4992305;28;20180;-51
2022/03/28 05:53:17;;;;;;;11.43;5.80;;;5.40;99.90;;;;;;4991749;28;20188;-50
2022/03/28 05:55:43;;;;;;;6.43;3.93;;;5.50;99.90;;;;;;4997198;28;20506;-50
2022/03/28 05:58:10;;;;;;;9.60;5.07;;;5.50;1.00;;;;;;4995312;28;20232;-50
2022/03/28 06:00:36;;;;;;;6.77;4.27;;;5.50;2.50;;;;;;4988245;28;21548;-50
2022/03/28 06:03:06;;;;;;;8.70;4.57;;;5.50;1.00;;;;;;4992123;28;21251;-50
2022/03/28 06:05:32;;;;;;;10.07;4.47;;;5.60;99.90;;;;;;4989559;28;20940;-50
2022/03/28 06:07:58;;;;;;;6.63;4.20;;;5.60;99.90;;;;;;4990692;28;20439;-54
2022/03/28 06:10:24;;;;;;;7.10;3.83;;;5.60;99.90;;;;;;4977344;28;20180;-53
2022/03/28 06:12:50;;;;;;;9.13;4.40;;;5.60;99.90;;;;;;4991114;28;20505;-54
2022/03/28 06:15:15;;;;;;;9.60;4.13;;;5.60;1.00;;;;;;4990446;28;20309;-54
2022/03/28 06:17:43;;;;;;;6.53;3.60;;;5.60;1.00;;;;;;4993923;28;20638;-54
2022/03/28 06:20:10;;;;;;;5.70;3.77;;;5.60;1.00;;;;;;4990095;28;20189;-54
2022/03/28 06:22:35;;;;;;;10.50;4.07;;;5.50;99.90;;;;;;4989556;28;20462;-53
2022/03/28 06:25:02;;;;;;;10.50;4.50;;;5.50;1.00;;;;;;4992566;28;20424;-53
2022/03/28 06:27:27;;;;;;;7.77;4.00;;;5.60;1.00;;;;;;4995773;28;20181;-53
2022/03/28 06:29:53;;;;;;;6.60;4.20;;;5.60;95.40;;;;;;4991045;28;20443;-53
2022/03/28 06:32:19;;;;;;;5.60;4.00;;;5.70;99.90;;;;;;4992421;28;20639;-53
2022/03/28 06:34:45;;;;;;;7.50;4.57;;;5.60;1.00;;;;;;4987270;28;20219;-53
2022/03/28 06:37:10;;;;;;;5.80;3.87;;;5.60;1.00;;;;;;4970789;28;20455;-53
2022/03/28 06:39:36;;;;;;;5.13;3.50;;;5.50;99.90;;;;;;4985727;28;20200;-53
2022/03/28 06:42:03;;;;;;;4.20;3.20;;;5.50;1.00;;;;;;4972541;28;20227;-53
2022/03/28 06:44:30;;;;;;;4.50;2.80;;;5.60;99.90;;;;;;4993383;28;20219;-53
2022/03/28 06:46:56;;;;;;;3.60;2.73;;;5.60;99.90;;;;;;4994881;28;20443;-53
2022/03/28 06:49:22;;;;;;;4.00;2.40;;;5.60;1.00;;;;;;4989959;28;20451;-53
2022/03/28 06:51:47;;;;;;;3.10;2.43;;;5.60;99.90;;;;;;4990101;28;21268;-53
2022/03/28 06:54:14;;;;;;;3.07;2.20;;;5.60;69.10;;;;;;4989486;28;20689;-53
2022/03/28 06:56:41;;;;;;;2.60;1.83;;;5.60;1.00;;;;;;4991841;28;20198;-53
2022/03/28 06:59:08;;;;;;;2.07;1.87;;;5.60;99.90;;;;;;4974465;28;20802;-52
2022/03/28 07:01:34;;;;;;;1.77;1.60;;;5.70;99.90;;;;;;4990135;28;20438;-53
2022/03/28 07:04:00;;;;;;;2.43;1.70;;;5.80;1.00;;;;;;4991119;28;21038;-53
2022/03/28 07:06:25;;;;;;;6.47;1.60;;;5.80;1.00;;;;;;4990066;28;20432;-53
2022/03/28 07:08:51;;;;;;;2.17;1.30;;;5.90;1.00;;;;;;5004917;28;20180;-54
2022/03/28 07:11:17;;;;;;;1.43;1.33;;;5.90;1.00;;;;;;5003285;28;20188;-53
2022/03/28 07:13:43;;;;;;;1.33;1.20;;;5.90;1.00;;;;;;5001805;28;20427;-52
2022/03/28 07:16:08;;;;;;;2.07;1.27;;;6.00;1.00;;;;;;4990995;28;20180;-52
2022/03/28 07:18:34;;;;;;;1.20;1.10;;;6.00;1.00;;;;;;4993147;28;20188;-52
2022/03/28 07:20:59;;;;;;;2.30;1.37;;;6.10;1.00;;;;;;4989977;28;20195;-52
2022/03/28 07:23:25;;;;;;;1.33;1.23;;;6.20;1.00;;;;;;4993004;28;20226;-52
2022/03/28 07:25:50;;;;;;;1.30;0.97;;;6.30;99.90;;;;;;4998172;28;20654;-52
2022/03/28 07:28:17;;;;;;;1.57;1.20;;;6.30;99.90;;;;;;4983085;28;20192;-52
2022/03/28 07:30:43;;;;;;;1.50;1.40;;;6.40;79.80;;;;;;4992477;28;20493;-52
2022/03/28 07:33:09;;;;;;;1.95;1.60;;;6.40;1.00;;;;;;4988346;28;20547;-52
2022/03/28 07:35:36;;;;;;;4.60;3.87;;;6.40;1.00;;;;;;4991414;28;20235;-52
2022/03/28 07:38:09;;;;;;;3.00;2.80;;;6.50;1.00;;;;;;4987545;28;20467;-53
2022/03/28 07:40:36;;;;;;;4.27;3.20;;;6.40;1.00;;;;;;4987171;28;20437;-53
2022/03/28 07:43:03;;;;;;;9.53;3.83;;;6.50;1.00;;;;;;4990578;28;20467;-52
2022/03/28 07:45:28;;;;;;;5.67;4.30;;;6.40;1.00;;;;;;4992218;28;20804;-52
2022/03/28 07:48:01;;;;;;;7.53;4.80;;;6.40;1.00;;;;;;4987142;28;20550;-53
2022/03/28 07:51:01;;;;;;;8.07;5.40;;;6.40;1.00;;;;;;4976801;28;20276;-52
2022/03/28 07:53:26;;;;;;;7.50;5.33;;;6.40;1.00;;;;;;4990635;28;20451;-53
2022/03/28 07:55:52;;;;;;;7.70;5.87;;;6.40;1.00;;;;;;4995766;28;20443;-49
2022/03/28 07:58:17;;;;;;;7.67;4.80;;;6.40;1.00;;;;;;4963498;28;20279;-49
2022/03/28 08:00:43;;;;;;;9.17;4.80;;;6.40;1.00;;;;;;5000134;28;20195;-49
2022/03/28 08:03:09;;;;;;;13.53;6.90;;;6.40;1.00;;;;;;4993855;28;20196;-48
2022/03/28 08:05:35;;;;;;;10.87;7.80;;;6.40;1.00;;;;;;5011779;28;20434;-49
2022/03/28 08:08:00;;;;;;;12.20;7.47;;;6.50;1.00;;;;;;5001636;28;20191;-49
2022/03/28 08:10:26;;;;;;;12.03;7.27;;;6.60;1.00;;;;;;4998737;28;20188;-49
2022/03/28 08:12:52;;;;;;;12.73;7.57;;;6.50;1.00;;;;;;4997861;28;20600;-49
2022/03/28 08:15:19;;;;;;;12.10;7.70;;;6.50;1.00;;;;;;4997941;28;20578;-50
2022/03/28 08:17:45;;;;;;;13.07;7.17;;;6.60;1.00;;;;;;5006764;28;20438;-49
2022/03/28 08:20:12;;;;;;;10.30;6.90;;;6.50;1.00;;;;;;5000275;28;20431;-49
2022/03/28 08:22:40;;;;;;;12.63;7.20;;;6.60;1.00;;;;;;4994974;28;20470;-49
2022/03/28 08:25:07;;;;;;;7.13;5.10;;;6.70;1.00;;;;;;4988333;28;20779;-48
2022/03/28 08:27:33;;;;;;;11.30;6.70;;;6.70;1.00;;;;;;4988217;28;20468;-48
2022/03/28 08:29:59;;;;;;;7.83;5.23;;;6.60;1.00;;;;;;4996936;28;20420;-48
2022/03/28 08:32:25;;;;;;;5.73;4.13;;;6.70;1.00;;;;;;4993292;28;20430;-48
2022/03/28 08:34:51;;;;;;;7.03;4.73;;;6.80;1.00;;;;;;5002731;28;20220;-55
2022/03/28 08:37:17;;;;;;;6.80;4.37;;;6.80;1.00;;;;;;4979642;28;20184;-51
2022/03/28 08:39:49;;;;;;;6.10;4.53;;;6.80;1.00;;;;;;4995132;28;20439;-49
2022/03/28 08:42:36;;;;;;;11.10;4.97;;;6.80;1.00;;;;;;4994995;28;20423;-49
2022/03/28 08:45:03;;;;;;;8.90;4.47;;;6.80;1.00;;;;;;4981001;28;20438;-49
2022/03/28 08:47:29;;;;;;;7.90;4.80;;;6.90;1.00;;;;;;4974507;28;20830;-49
2022/03/28 08:49:55;;;;;;;11.60;7.30;;;6.90;1.00;;;;;;4993291;28;20400;-49
2022/03/28 08:52:24;;;;;;;13.03;8.27;;;6.90;1.00;;;;;;4955234;28;20432;-50
2022/03/28 08:54:50;;;;;;;11.77;6.90;;;6.90;1.00;;;;;;4974810;28;20470;-53
2022/03/28 08:57:16;;;;;;;11.50;7.43;;;6.90;1.00;;;;;;4991393;28;20420;-52
2022/03/28 08:59:42;;;;;;;13.30;7.80;;;6.80;1.00;;;;;;4984133;28;20848;-53
2022/03/28 09:02:31;;;;;;;10.00;6.00;;;6.80;1.00;;;;;;4992871;28;20435;-53
2022/03/28 09:04:57;;;;;;;8.10;5.30;;;6.80;1.00;;;;;;4992672;28;20645;-49
2022/03/28 09:07:26;;;;;;;6.70;5.00;;;6.80;1.00;;;;;;4973847;28;20424;-49
2022/03/28 09:10:05;;;;;;;8.97;5.73;;;6.90;1.00;;;;;;4989211;28;20280;-49
2022/03/28 09:12:30;;;;;;;9.20;5.67;;;7.00;1.00;;;;;;4992610;28;20423;-49
2022/03/28 09:15:03;;;;;;;9.50;5.77;;;7.10;1.00;;;;;;5004002;28;20516;-49
2022/03/28 09:17:29;;;;;;;14.00;6.07;;;7.20;1.00;;;;;;4993962;28;20184;-49
2022/03/28 09:19:55;;;;;;;10.87;6.07;;;7.30;99.90;;;;;;5000875;28;20434;-49
2022/03/28 09:22:26;;;;;;;13.50;7.83;;;7.40;99.90;;;;;;4975776;28;20227;-49
2022/03/28 09:25:00;;;;;;;10.80;7.90;;;7.40;99.90;;;;;;5005605;28;20989;-49
2022/03/28 09:27:32;;;;;;;13.27;7.80;;;7.50;99.90;;;;;;4994704;28;20426;-49
2022/03/28 09:29:57;;;;;;;12.30;7.90;;;7.60;99.90;;;;;;5001560;28;20848;-48
2022/03/28 09:32:25;;;;;;;16.10;9.20;;;7.50;99.90;;;;;;5006110;28;20439;-49
2022/03/28 09:35:09;;;;;;;13.00;8.20;;;7.50;99.90;;;;;;5000337;28;20710;-49
2022/03/28 09:37:47;;;;;;;10.57;6.90;;;7.70;99.90;;;;;;4989915;28;20450;-49
2022/03/28 09:40:32;;;;;;;10.63;6.83;;;7.80;99.90;;;;;;5000649;28;20473;-49
2022/03/28 09:43:00;;;;;;;12.10;7.03;;;8.00;99.90;;;;;;4981864;28;20474;-49
2022/03/28 09:45:30;;;;;;;13.30;7.53;;;8.10;99.90;;;;;;4991287;28;20510;-48
2022/03/28 09:48:06;;;;;;;8.93;6.00;;;8.00;99.90;;;;;;4991909;28;20427;-49
2022/03/28 09:50:33;;;;;;;7.77;5.00;;;8.10;99.90;;;;;;4994229;28;20435;-49
2022/03/28 09:53:10;;;;;;;10.23;7.63;;;8.20;99.90;;;;;;4998260;28;20426;-49
2022/03/28 09:55:46;;;;;;;8.63;7.20;;;8.30;99.90;;;;;;4998525;28;20431;-49
2022/03/28 09:58:46;;;;;;;12.30;7.80;;;8.50;99.90;;;;;;4989421;28;20543;-49
2022/03/28 10:01:24;;;;;;;15.30;7.43;;;8.60;99.90;;;;;;4989336;28;20464;-48
2022/03/28 10:04:05;;;;;;;11.63;8.00;;;8.70;99.90;;;;;;4972468;28;20448;-49
2022/03/28 10:06:32;;;;;;;9.10;6.80;;;8.90;99.90;;;;;;4990914;28;21286;-49
2022/03/28 10:08:59;;;;;;;8.90;6.13;;;9.00;99.90;;;;;;4995322;28;20419;-49
2022/03/28 10:11:25;;;;;;;11.77;7.13;;;9.10;99.90;;;;;;4994528;28;20446;-49
2022/03/28 10:13:52;;;;;;;11.20;6.60;;;9.20;99.90;;;;;;4993177;28;20845;-49
2022/03/28 10:16:18;;;;;;;7.93;5.90;;;9.30;99.90;;;;;;4990768;28;20442;-49
2022/03/28 10:18:45;;;;;;;13.03;6.30;;;9.40;99.90;;;;;;4990856;28;21016;-49
2022/03/28 10:21:26;;;;;;;7.37;5.90;;;9.60;99.90;;;;;;4993828;28;20442;-49
2022/03/28 10:23:55;;;;;;;12.07;6.10;;;9.70;99.90;;;;;;4987047;28;20566;-49
2022/03/28 10:26:28;;;;;;;7.77;5.10;;;9.90;99.90;;;;;;4990927;28;20467;-49
2022/03/28 10:29:01;;;;;;;6.97;5.40;;;10.00;99.90;;;;;;4972025;28;20507;-49
2022/03/28 10:31:26;;;;;;;6.93;5.00;;;10.20;99.90;;;;;;4989808;28;20442;-49
2022/03/28 10:33:53;;;;;;;8.20;5.53;;;10.30;99.90;;;;;;4989865;28;20443;-48
2022/03/28 10:36:30;;;;;;;7.83;5.33;;;10.50;99.90;;;;;;4990160;28;20187;-49
2022/03/28 10:39:32;;;;;;;8.53;5.60;;;10.90;99.90;;;;;;4993667;28;21023;-49
2022/03/28 10:42:26;;;;;;;7.20;4.97;;;11.20;99.90;;;;;;4987420;28;20490;-48
2022/03/28 10:45:07;;;;;;;6.37;4.93;;;11.30;99.90;;;;;;4974214;28;20452;-49
2022/03/28 10:47:48;;;;;;;8.43;4.67;;;11.20;99.90;;;;;;4989311;28;20438;-49
2022/03/28 10:50:24;;;;;;;6.80;5.40;;;11.30;99.90;;;;;;4989092;28;20438;-49
2022/03/28 10:53:08;;;;;;;12.23;6.30;;;11.40;99.90;;;;;;4993366;28;20446;-48
2022/03/28 10:55:50;;;;;;;6.90;5.43;;;11.20;99.90;;;;;;4992291;28;20529;-49
2022/03/28 10:58:26;;;;;;;7.10;5.87;;;11.30;99.90;;;;;;4989102;28;20467;-48
2022/03/28 11:01:12;;;;;;;10.27;8.10;;;11.30;99.90;;;;;;4990265;28;20435;-49
2022/03/28 11:03:43;;;;;;;8.97;7.97;;;11.90;99.90;;;;;;4987687;28;20517;-48
2022/03/28 11:06:09;;;;;;;12.90;9.33;;;12.30;99.90;;;;;;4990154;28;20443;-49
2022/03/28 11:08:36;;;;;;;12.00;8.50;;;12.30;99.90;;;;;;4994464;28;20435;-48
2022/03/28 11:11:20;;;;;;;9.97;8.63;;;12.30;99.90;;;;;;4994446;28;20427;-49
2022/03/28 11:13:58;;;;;;;10.53;8.50;;;12.80;99.90;;;;;;4993321;28;21230;-49
2022/03/28 11:16:53;;;;;;;10.00;7.10;;;13.10;99.90;;;;;;4992064;28;20431;-49
2022/03/28 11:19:35;;;;;;;10.00;7.27;;;12.90;99.90;;;;;;4995963;28;20434;-49
2022/03/28 11:22:04;;;;;;;8.43;5.70;;;12.80;99.90;;;;;;5001555;28;21327;-49
2022/03/28 11:24:56;;;;;;;7.83;5.13;;;12.60;99.90;;;;;;4988781;28;20472;-50
2022/03/28 11:27:24;;;;;;;8.17;5.73;;;12.50;99.90;;;;;;4992039;28;20439;-49
2022/03/28 11:29:59;;;;;;;9.80;6.47;;;12.50;99.90;;;;;;4999718;28;20431;-50
2022/03/28 11:32:31;;;;;;;7.53;5.73;;;12.40;99.90;;;;;;5010632;28;20410;-49
2022/03/28 11:34:56;;;;;;;8.50;5.53;;;12.60;99.90;;;;;;5001061;28;20427;-49
2022/03/28 11:37:25;;;;;;;10.85;5.40;;;12.90;99.90;;;;;;5001016;28;20418;-49
2022/03/28 11:40:00;;;;;;;4.93;4.43;;;13.80;99.90;;;;;;4989455;28;20520;-49
2022/03/28 11:42:27;;;;;;;7.50;4.73;;;14.50;99.90;;;;;;5005141;28;20486;-49
2022/03/28 11:44:54;;;;;;;8.20;4.67;;;14.80;99.90;;;;;;5001860;28;20423;-49
2022/03/28 11:47:21;;;;;;;8.67;5.10;;;14.80;99.90;;;;;;4994171;28;20514;-49
2022/03/28 11:49:55;;;;;;;6.57;4.83;;;14.60;99.90;;;;;;5010510;28;20917;-49
2022/03/28 11:52:21;;;;;;;6.50;4.77;;;14.00;99.90;;;;;;4999422;28;20435;-49
2022/03/28 11:54:46;;;;;;;5.90;4.27;;;13.50;99.90;;;;;;4993787;28;20431;-49
2022/03/28 12:00:13;;;;;;;8.43;5.30;;;13.80;99.90;;;;;;5009648;28;20516;-49
2022/03/28 12:02:56;;;;;;;5.20;4.67;;;13.60;99.90;;;;;;4994067;28;20830;-49
2022/03/28 12:05:30;;;;;;;6.80;5.13;;;13.50;99.90;;;;;;4986305;28;20446;-49
2022/03/28 12:07:57;;;;;;;11.10;7.40;;;14.20;99.90;;;;;;4993910;28;20425;-49
2022/03/28 12:10:24;;;;;;;6.37;4.80;;;14.10;99.90;;;;;;4986759;28;20426;-49
2022/03/28 12:12:51;;;;;;;8.07;5.50;;;14.00;99.90;;;;;;4993448;28;20474;-49
2022/03/28 12:15:29;;;;;;;10.53;5.70;;;13.70;99.90;;;;;;4993680;28;20450;-49
2022/03/28 12:17:57;;;;;;;9.80;5.10;;;13.80;99.90;;;;;;4994329;28;20454;-49
2022/03/28 12:20:25;;;;;;;21.90;5.90;;;13.40;99.90;;;;;;4995797;28;20435;-49
2022/03/28 12:22:51;;;;;;;9.80;5.60;;;13.10;99.90;;;;;;5012388;28;20539;-49
2022/03/28 12:25:38;;;;;;;8.40;5.53;;;13.50;99.90;;;;;;5003716;28;20897;-49
2022/03/28 12:28:18;;;;;;;12.13;6.70;;;13.70;99.90;;;;;;4997903;28;20428;-49
2022/03/28 12:30:52;;;;;;;8.37;6.00;;;13.30;99.90;;;;;;4999558;28;20416;-49
2022/03/28 12:33:26;;;;;;;15.90;6.77;;;12.80;99.90;;;;;;5000906;28;20442;-55
2022/03/28 12:35:55;;;;;;;13.53;6.60;;;12.80;99.90;;;;;;4999332;28;20424;-49
2022/03/28 12:38:27;;;;;;;7.90;5.63;;;12.40;99.90;;;;;;4999355;28;20433;-51
2022/03/28 12:40:56;;;;;;;9.83;5.93;;;12.20;99.90;;;;;;4994387;28;20434;-49
2022/03/28 12:43:27;;;;;;;10.63;5.90;;;12.30;99.90;;;;;;5005095;28;20463;-49
2022/03/28 12:45:57;;;;;;;11.43;6.20;;;12.10;99.90;;;;;;4995188;28;20925;-49
2022/03/28 12:48:35;;;;;;;8.90;6.70;;;12.10;99.90;;;;;;4993040;28;20534;-49
2022/03/28 12:51:00;;;;;;;9.93;7.00;;;11.80;99.90;;;;;;5001444;28;20412;-49
2022/03/28 12:53:29;;;;;;;12.23;6.60;;;11.60;99.90;;;;;;4996543;28;20286;-49
2022/03/28 12:56:16;;;;;;;10.17;6.20;;;11.60;99.90;;;;;;4994531;28;20195;-49
2022/03/28 12:58:59;;;;;;;11.97;6.67;;;11.40;99.90;;;;;;4990825;28;20482;-49